createdAt,value
2017-03-29T00:02:10.840Z,0
2017-03-29T00:07:07.575Z,0
2017-03-29T00:12:04.418Z,0
2017-03-29T00:17:00.981Z,0
2017-03-29T00:21:57.197Z,0
2017-03-29T00:26:53.418Z,0
2017-03-29T00:31:49.897Z,0
2017-03-29T00:36:47.270Z,0
2017-03-29T00:41:43.941Z,0
2017-03-29T00:46:40.193Z,0
2017-03-29T00:51:37.322Z,0
2017-03-29T00:56:34.007Z,0
2017-03-29T01:01:30.122Z,0
2017-03-29T01:06:27.908Z,0
2017-03-29T01:11:23.667Z,0
2017-03-29T01:16:20.473Z,0
2017-03-29T01:21:16.789Z,0
2017-03-29T01:26:13.387Z,0
2017-03-29T01:31:09.689Z,0
2017-03-29T01:36:06.083Z,0
2017-03-29T01:41:02.605Z,0
2017-03-29T01:45:59.366Z,0
2017-03-29T01:50:55.909Z,0
2017-03-29T01:55:53.658Z,0
2017-03-29T02:00:49.811Z,0
2017-03-29T02:05:46.093Z,0
2017-03-29T02:10:43.273Z,0
2017-03-29T02:15:39.737Z,0
2017-03-29T02:20:36.753Z,0
2017-03-29T02:25:33.488Z,0
2017-03-29T02:30:30.094Z,0
2017-03-29T02:35:26.586Z,0
2017-03-29T02:40:23.636Z,0
2017-03-29T02:45:20.216Z,0
2017-03-29T02:50:16.888Z,0
2017-03-29T02:55:13.856Z,0
2017-03-29T03:00:10.838Z,0
2017-03-29T03:05:07.379Z,0
2017-03-29T03:10:03.791Z,0
2017-03-29T03:15:00.967Z,0
2017-03-29T03:19:57.340Z,0
2017-03-29T03:24:54.298Z,0
2017-03-29T03:29:51.380Z,0
2017-03-29T03:34:47.900Z,0
2017-03-29T03:39:44.415Z,0
2017-03-29T03:44:41.214Z,0
2017-03-29T03:49:37.647Z,0
2017-03-29T03:54:34.979Z,0
2017-03-29T03:59:31.242Z,0
2017-03-29T04:04:27.538Z,0
2017-03-29T04:09:24.401Z,0
2017-03-29T04:14:21.553Z,0
2017-03-29T04:19:17.677Z,0
2017-03-29T04:24:14.403Z,0
2017-03-29T04:29:10.802Z,0
2017-03-29T04:34:07.804Z,0
2017-03-29T04:39:05.286Z,0
2017-03-29T04:44:04.286Z,0
2017-03-29T04:49:00.325Z,4
2017-03-29T04:53:57.009Z,8
2017-03-29T04:58:53.538Z,24
2017-03-29T05:03:49.806Z,60
2017-03-29T05:08:46.209Z,80
2017-03-29T05:13:42.723Z,116
2017-03-29T05:18:39.260Z,168
2017-03-29T05:23:35.651Z,152
2017-03-29T05:28:33.095Z,280
2017-03-29T05:33:29.590Z,580
2017-03-29T05:38:25.925Z,592
2017-03-29T05:43:22.462Z,604
2017-03-29T05:48:19.308Z,676
2017-03-29T05:53:16.015Z,696
2017-03-29T05:58:13.061Z,1044
2017-03-29T06:03:09.232Z,1268
2017-03-29T06:08:06.266Z,1364
2017-03-29T06:13:02.520Z,1424
2017-03-29T06:18:00.296Z,1324
2017-03-29T06:22:57.514Z,1368
2017-03-29T06:27:54.108Z,1712
2017-03-29T06:32:51.091Z,2160
2017-03-29T06:37:47.756Z,2076
2017-03-29T06:42:44.150Z,2056
2017-03-29T06:47:40.555Z,2960
2017-03-29T06:52:37.281Z,2996
2017-03-29T06:57:33.948Z,3104
2017-03-29T07:02:30.549Z,2660
2017-03-29T07:07:27.320Z,2712
2017-03-29T07:12:23.922Z,3024
2017-03-29T07:17:20.288Z,2088
2017-03-29T07:22:16.689Z,3760
2017-03-29T07:27:13.420Z,3900
2017-03-29T07:32:10.094Z,5564
2017-03-29T07:37:06.830Z,3488
2017-03-29T07:42:03.209Z,5740
2017-03-29T07:47:00.158Z,6008
2017-03-29T07:51:59.929Z,7304
2017-03-29T07:56:56.210Z,7572
2017-03-29T08:01:53.138Z,8268
2017-03-29T08:06:49.471Z,9720
2017-03-29T08:11:46.322Z,9312
2017-03-29T08:16:45.446Z,13160
2017-03-29T08:26:49.874Z,9944
2017-03-29T08:31:46.731Z,9184
2017-03-29T08:36:43.279Z,8004
2017-03-29T08:41:41.279Z,13980
2017-03-29T08:46:40.211Z,12440
2017-03-29T08:51:38.306Z,17824
2017-03-29T08:56:35.456Z,15256
2017-03-29T09:01:33.874Z,18112
2017-03-29T09:06:31.119Z,18688
2017-03-29T09:11:27.993Z,16832
2017-03-29T09:16:25.556Z,12824
2017-03-29T09:21:21.387Z,9712
2017-03-29T09:26:17.861Z,8372
2017-03-29T09:31:14.411Z,11376
2017-03-29T09:36:11.321Z,12048
2017-03-29T09:41:08.195Z,11088
2017-03-29T09:46:04.909Z,9736
2017-03-29T09:51:05.609Z,8176
2017-03-29T09:56:03.946Z,5972
2017-03-29T10:01:00.838Z,8032
2017-03-29T10:05:57.218Z,7968
2017-03-29T10:10:53.513Z,9676
2017-03-29T10:15:51.511Z,7516
2017-03-29T10:20:48.755Z,6492
2017-03-29T10:25:45.196Z,8356
2017-03-29T10:30:41.584Z,7608
2017-03-29T10:35:38.263Z,9128
2017-03-29T10:40:34.824Z,7280
2017-03-29T10:45:31.354Z,7308
2017-03-29T10:50:28.001Z,5552
2017-03-29T10:55:24.449Z,6256
2017-03-29T11:00:21.287Z,6204
2017-03-29T11:05:17.629Z,6900
2017-03-29T11:10:14.678Z,8180
2017-03-29T11:15:12.082Z,6720
2017-03-29T11:20:10.690Z,7384
2017-03-29T11:25:06.795Z,6512
2017-03-29T11:30:03.363Z,4772
2017-03-29T11:35:00.601Z,5160
2017-03-29T11:39:57.050Z,18528
2017-03-29T11:44:54.623Z,19232
2017-03-29T11:49:51.496Z,15020
2017-03-29T11:54:48.677Z,17536
2017-03-29T11:59:46.543Z,21408
2017-03-29T12:04:44.336Z,27424
2017-03-29T12:09:42.882Z,32128
2017-03-29T12:14:39.436Z,16768
2017-03-29T12:19:35.439Z,6040
2017-03-29T12:24:31.289Z,4304
2017-03-29T12:29:27.771Z,5244
2017-03-29T12:34:24.032Z,10576
2017-03-29T12:39:21.463Z,8596
2017-03-29T12:44:18.016Z,4312
2017-03-29T12:49:14.470Z,5308
2017-03-29T12:54:10.662Z,4220
2017-03-29T12:59:07.224Z,9976
2017-03-29T13:04:05.293Z,5452
2017-03-29T13:09:01.363Z,2472
2017-03-29T13:13:58.034Z,4156
2017-03-29T13:18:57.302Z,2044
2017-03-29T13:23:53.188Z,1912
2017-03-29T13:28:50.706Z,2484
2017-03-29T13:33:47.001Z,2908
2017-03-29T13:43:49.836Z,4368
2017-03-29T13:48:50.089Z,5204
2017-03-29T13:53:45.959Z,7112
2017-03-29T13:58:43.021Z,6020
2017-03-29T14:03:40.687Z,5436
2017-03-29T14:08:37.214Z,3964
2017-03-29T14:13:33.793Z,2492
2017-03-29T14:18:31.160Z,4068
2017-03-29T14:23:27.617Z,4024
2017-03-29T14:28:26.092Z,2688
2017-03-29T14:33:22.047Z,2572
2017-03-29T14:38:18.611Z,2500
2017-03-29T14:43:15.093Z,2508
2017-03-29T14:48:11.944Z,3500
2017-03-29T14:53:13.278Z,3724
2017-03-29T14:58:09.201Z,2488
2017-03-29T15:03:05.842Z,2912
2017-03-29T15:08:02.628Z,2948
2017-03-29T15:12:59.750Z,2364
2017-03-29T15:17:56.030Z,2644
2017-03-29T15:22:52.914Z,2032
2017-03-29T15:27:49.788Z,2280
2017-03-29T15:32:46.163Z,3508
2017-03-29T15:37:42.890Z,4156
2017-03-29T15:42:43.256Z,4388
2017-03-29T15:47:39.473Z,5052
2017-03-29T15:52:36.191Z,5488
2017-03-29T15:57:33.086Z,4284
2017-03-29T16:02:29.503Z,3148
2017-03-29T16:07:26.138Z,2388
2017-03-29T16:12:23.027Z,1712
2017-03-29T16:17:20.255Z,1432
2017-03-29T16:22:16.531Z,1592
2017-03-29T16:27:13.526Z,1392
2017-03-29T16:32:10.619Z,1688
2017-03-29T16:37:07.924Z,1640
2017-03-29T16:42:04.743Z,1864
2017-03-29T16:47:01.848Z,1820
2017-03-29T16:52:03.960Z,1488
2017-03-29T16:57:00.026Z,1356
2017-03-29T17:01:56.473Z,1308
2017-03-29T17:06:53.112Z,1060
2017-03-29T17:11:49.521Z,948
2017-03-29T17:16:46.197Z,736
2017-03-29T17:21:43.388Z,344
2017-03-29T17:26:39.533Z,176
2017-03-29T17:31:36.067Z,264
2017-03-29T17:36:32.662Z,296
2017-03-29T17:41:29.188Z,328
2017-03-29T17:46:25.909Z,260
2017-03-29T17:51:22.225Z,164
2017-03-29T17:56:18.786Z,104
2017-03-29T18:01:14.894Z,68
2017-03-29T18:06:11.600Z,36
2017-03-29T18:11:08.555Z,20
2017-03-29T18:16:05.216Z,8
2017-03-29T18:21:01.782Z,4
2017-03-29T18:25:58.028Z,0
2017-03-29T18:30:56.408Z,0
2017-03-29T18:35:52.626Z,0
2017-03-29T18:40:49.169Z,0
2017-03-29T18:45:45.823Z,0
2017-03-29T18:50:41.936Z,0
2017-03-29T18:55:38.549Z,0
2017-03-29T19:00:34.789Z,0
2017-03-29T19:05:34.965Z,0
2017-03-29T19:10:31.397Z,0
2017-03-29T19:15:28.024Z,0
2017-03-29T19:20:24.575Z,0
2017-03-29T19:25:21.246Z,0
2017-03-29T19:30:18.487Z,0
2017-03-29T19:35:15.045Z,0
2017-03-29T19:40:11.829Z,0
2017-03-29T19:45:08.270Z,0
2017-03-29T19:50:04.703Z,0
2017-03-29T19:55:01.238Z,0
2017-03-29T19:59:58.212Z,0
2017-03-29T20:04:55.866Z,0
2017-03-29T20:09:52.081Z,0
2017-03-29T20:14:48.386Z,0
2017-03-29T20:19:44.852Z,0
2017-03-29T20:24:41.346Z,0
2017-03-29T20:29:37.644Z,0
2017-03-29T20:34:35.217Z,0
2017-03-29T20:39:31.696Z,0
2017-03-29T20:44:28.450Z,0
2017-03-29T20:49:24.977Z,0
2017-03-29T20:54:21.484Z,0
2017-03-29T20:59:18.494Z,0
2017-03-29T21:04:14.657Z,0
2017-03-29T21:09:11.119Z,0
2017-03-29T21:14:07.633Z,0
2017-03-29T21:19:03.975Z,0
2017-03-29T21:24:00.949Z,0
2017-03-29T21:28:57.247Z,0
2017-03-29T21:33:53.383Z,0
2017-03-29T21:38:50.065Z,0
2017-03-29T21:43:47.454Z,0
2017-03-29T21:48:46.417Z,0
2017-03-29T21:53:42.405Z,0
2017-03-29T21:58:38.964Z,0
2017-03-29T22:03:35.560Z,0
2017-03-29T22:08:32.910Z,0
2017-03-29T22:13:29.546Z,0
2017-03-29T22:18:26.110Z,0
2017-03-29T22:23:23.150Z,0
2017-03-29T22:28:19.777Z,0
2017-03-29T22:33:16.542Z,0
2017-03-29T22:38:12.967Z,0
2017-03-29T22:43:09.750Z,0
2017-03-29T22:48:06.240Z,0
2017-03-29T22:53:03.845Z,0
2017-03-29T22:58:00.067Z,0
2017-03-29T23:02:57.105Z,0
2017-03-29T23:07:53.523Z,0
2017-03-29T23:12:51.063Z,0
2017-03-29T23:17:47.393Z,0
2017-03-29T23:22:43.856Z,0
2017-03-29T23:27:40.445Z,0
2017-03-29T23:32:36.973Z,0
2017-03-29T23:37:33.618Z,0
2017-03-29T23:42:31.231Z,0
2017-03-29T23:47:28.366Z,0
2017-03-29T23:52:24.704Z,0
2017-03-29T23:57:21.597Z,0
